createdAt,value
2022-08-22T00:00:14.786Z,71.24
2022-08-22T00:02:56.070Z,56.22
2022-08-22T00:02:58.606Z,49.78
2022-08-22T00:02:59.906Z,51.81
2022-08-22T00:06:18.883Z,71.71
2022-08-22T00:09:11.462Z,71.46
2022-08-22T00:12:21.516Z,71.48
2022-08-22T00:15:04.675Z,71.09
2022-08-22T00:17:52.442Z,71.29
2022-08-22T00:20:40.159Z,69.89
2022-08-22T00:23:21.441Z,70.06
2022-08-22T00:26:02.665Z,70.00
2022-08-22T00:28:47.338Z,70.94
2022-08-22T00:31:32.076Z,70.42
2022-08-22T00:34:12.478Z,71.24
2022-08-22T00:36:52.885Z,71.66
2022-08-22T00:39:25.441Z,72.59
2022-08-22T00:42:31.232Z,71.70
2022-08-22T00:45:30.022Z,71.39
2022-08-22T00:48:38.326Z,71.43
2022-08-22T00:51:17.137Z,71.09
2022-08-22T00:54:24.821Z,71.09
2022-08-22T00:57:42.975Z,70.68
2022-08-22T01:00:16.593Z,71.42
2022-08-22T01:03:21.401Z,71.98
2022-08-22T01:06:10.043Z,71.35
2022-08-22T01:09:01.607Z,72.26
2022-08-22T01:12:05.726Z,72.81
2022-08-22T01:14:55.843Z,72.48
2022-08-22T01:17:39.235Z,72.47
2022-08-22T01:20:43.696Z,73.18
2022-08-22T01:23:32.014Z,73.27
2022-08-22T01:26:46.224Z,73.62
2022-08-22T01:30:03.445Z,73.66
2022-08-22T01:32:31.664Z,73.73
2022-08-22T01:35:51.367Z,73.73
2022-08-22T01:38:40.192Z,74.09
2022-08-22T01:41:25.808Z,74.01
2022-08-22T01:44:21.751Z,73.42
2022-08-22T01:47:12.271Z,73.41
2022-08-22T01:49:55.994Z,73.65
2022-08-22T01:52:46.352Z,73.54
2022-08-22T01:55:21.735Z,74.00
2022-08-22T01:58:25.344Z,73.98
2022-08-22T02:01:20.176Z,74.07
2022-08-22T02:04:24.520Z,74.07
2022-08-22T02:07:08.750Z,75.07
2022-08-22T02:09:38.882Z,75.31
2022-08-22T02:12:22.668Z,75.54
2022-08-22T02:15:05.733Z,75.44
2022-08-22T02:17:48.461Z,75.76
2022-08-22T02:20:44.566Z,76.17
2022-08-22T02:23:52.448Z,76.96
2022-08-22T02:27:07.553Z,77.28
2022-08-22T02:30:14.957Z,77.59
2022-08-22T02:32:41.869Z,77.20
2022-08-22T02:35:47.616Z,76.79
2022-08-22T02:38:43.043Z,76.31
2022-08-22T02:41:31.374Z,76.84
2022-08-22T02:44:26.955Z,76.84
2022-08-22T02:47:06.940Z,77.46
2022-08-22T02:49:49.134Z,77.13
2022-08-22T02:52:33.631Z,77.26
2022-08-22T02:55:16.498Z,77.69
2022-08-22T02:58:12.115Z,77.04
2022-08-22T03:00:51.267Z,76.32
2022-08-22T03:03:29.015Z,76.13
2022-08-22T03:06:35.024Z,76.03
2022-08-22T03:09:07.765Z,76.20
2022-08-22T03:11:42.945Z,76.10
2022-08-22T03:14:24.413Z,76.08
2022-08-22T03:17:06.263Z,76.30
2022-08-22T03:20:12.210Z,76.40
2022-08-22T03:22:53.384Z,76.65
2022-08-22T03:25:37.549Z,76.61
2022-08-22T03:28:21.680Z,77.14
2022-08-22T03:30:51.557Z,77.48
2022-08-22T03:33:25.050Z,77.61
2022-08-22T03:36:14.737Z,78.31
2022-08-22T03:39:17.050Z,78.62
2022-08-22T03:41:59.244Z,78.26
2022-08-22T03:45:00.139Z,78.46
2022-08-22T03:48:03.740Z,78.38
2022-08-22T03:50:59.724Z,79.31
2022-08-22T03:54:21.012Z,78.65
2022-08-22T03:57:25.016Z,78.32
2022-08-22T04:00:04.500Z,78.12
2022-08-22T04:03:09.626Z,78.21
2022-08-22T04:05:54.402Z,78.04
2022-08-22T04:09:08.904Z,78.81
2022-08-22T04:12:00.332Z,79.67
2022-08-22T04:14:54.786Z,79.97
2022-08-22T04:17:53.290Z,80.40
2022-08-22T04:20:44.372Z,79.70
2022-08-22T04:23:27.884Z,79.47
2022-08-22T04:26:12.179Z,79.20
2022-08-22T04:28:53.430Z,78.75
2022-08-22T04:31:36.685Z,78.63
2022-08-22T04:34:41.284Z,78.83
2022-08-22T04:37:25.404Z,78.49
2022-08-22T04:40:26.151Z,78.27
2022-08-22T04:43:03.646Z,78.84
2022-08-22T04:45:54.195Z,78.98
2022-08-22T04:48:37.740Z,79.00
2022-08-22T04:51:33.339Z,79.37
2022-08-22T04:54:20.467Z,79.28
2022-08-22T04:57:36.336Z,79.02
2022-08-22T05:00:11.259Z,79.15
2022-08-22T05:02:48.326Z,78.97
2022-08-22T05:05:27.268Z,79.06
2022-08-22T05:08:01.403Z,78.80
2022-08-22T05:10:43.375Z,78.16
2022-08-22T05:13:36.609Z,78.15
2022-08-22T05:16:14.760Z,78.38
2022-08-22T05:19:17.965Z,78.27
2022-08-22T05:21:50.775Z,78.18
2022-08-22T05:24:44.971Z,78.24
2022-08-22T05:27:31.302Z,78.01
2022-08-22T05:30:11.793Z,77.72
2022-08-22T05:33:13.012Z,77.76
2022-08-22T05:36:10.260Z,77.81
2022-08-22T05:38:48.133Z,77.47
2022-08-22T05:41:23.950Z,77.48
2022-08-22T05:43:53.753Z,77.62
2022-08-22T05:46:40.755Z,76.66
2022-08-22T05:49:19.355Z,77.31
2022-08-22T05:52:31.203Z,78.16
2022-08-22T05:55:27.367Z,78.01
2022-08-22T05:58:33.232Z,77.57
2022-08-22T06:01:19.236Z,77.97
2022-08-22T06:04:14.033Z,77.83
2022-08-22T06:07:04.863Z,77.25
2022-08-22T06:10:07.607Z,76.04
2022-08-22T06:13:06.032Z,76.37
2022-08-22T06:16:11.361Z,76.26
2022-08-22T06:18:45.871Z,77.36
2022-08-22T06:21:41.940Z,77.40
2022-08-22T06:24:25.992Z,76.97
2022-08-22T06:27:04.199Z,75.95
2022-08-22T06:29:45.921Z,75.97
2022-08-22T06:32:59.268Z,76.13
2022-08-22T06:36:11.402Z,76.09
2022-08-22T06:39:03.265Z,75.01
2022-08-22T06:41:36.297Z,75.35
2022-08-22T06:44:08.052Z,74.41
2022-08-22T06:46:38.359Z,74.21
2022-08-22T06:49:09.714Z,73.43
2022-08-22T06:51:39.433Z,73.29
2022-08-22T06:54:25.483Z,73.87
2022-08-22T06:56:56.062Z,71.99
2022-08-22T06:59:38.328Z,72.22
2022-08-22T07:02:26.434Z,71.85
2022-08-22T07:04:53.780Z,72.30
2022-08-22T07:07:27.130Z,70.08
2022-08-22T07:09:57.501Z,69.24
2022-08-22T07:12:37.934Z,69.71
2022-08-22T07:15:36.671Z,69.69
2022-08-22T07:18:16.444Z,68.32
2022-08-22T07:20:54.545Z,71.21
2022-08-22T07:23:44.637Z,69.23
2022-08-22T07:26:29.540Z,67.15
2022-08-22T07:29:17.137Z,67.50
2022-08-22T07:32:00.213Z,69.08
2022-08-22T07:35:17.794Z,64.84
2022-08-22T07:37:57.126Z,67.01
2022-08-22T07:41:05.483Z,64.43
2022-08-22T07:43:45.968Z,63.10
2022-08-22T07:46:34.180Z,64.49
2022-08-22T07:49:21.940Z,66.18
2022-08-22T07:52:01.092Z,63.74
2022-08-22T07:54:43.171Z,63.31
2022-08-22T07:57:28.793Z,60.87
2022-08-22T08:00:00.332Z,62.30
2022-08-22T08:02:29.809Z,65.22
2022-08-22T08:05:00.529Z,61.58
2022-08-22T08:07:29.314Z,57.43
2022-08-22T08:10:12.752Z,55.13
2022-08-22T08:12:58.022Z,55.17
2022-08-22T08:15:35.145Z,53.78
2022-08-22T08:18:22.031Z,52.70
2022-08-22T08:21:05.199Z,52.10
2022-08-22T08:23:41.212Z,50.67
2022-08-22T08:26:18.750Z,51.65
2022-08-22T08:28:52.112Z,52.34
2022-08-22T08:31:43.047Z,48.96
2022-08-22T08:34:25.119Z,52.15
2022-08-22T08:37:22.462Z,47.10
2022-08-22T08:39:59.511Z,48.17
2022-08-22T08:43:05.661Z,47.97
2022-08-22T08:46:02.596Z,47.10
2022-08-22T08:49:07.530Z,45.82
2022-08-22T08:52:06.241Z,47.73
2022-08-22T08:55:21.997Z,46.08
2022-08-22T08:58:48.820Z,45.06
2022-08-22T09:01:58.603Z,46.88
2022-08-22T09:05:14.883Z,45.08
2022-08-22T09:08:28.024Z,44.96
2022-08-22T09:11:38.833Z,45.70
2022-08-22T09:14:14.348Z,45.19
2022-08-22T09:16:48.150Z,45.03
2022-08-22T09:19:24.500Z,44.98
2022-08-22T09:22:14.625Z,46.51
2022-08-22T09:24:48.408Z,43.89
2022-08-22T09:27:57.239Z,45.37
2022-08-22T09:30:54.152Z,44.46
2022-08-22T09:33:49.861Z,44.22
2022-08-22T09:36:33.550Z,45.48
2022-08-22T09:39:33.235Z,43.22
2022-08-22T09:42:20.047Z,45.34
2022-08-22T09:45:07.243Z,46.30
2022-08-22T09:47:51.188Z,46.66
2022-08-22T09:50:24.817Z,47.07
2022-08-22T09:53:40.052Z,44.52
2022-08-22T09:56:19.878Z,43.89
2022-08-22T09:59:07.018Z,44.28
2022-08-22T10:01:55.243Z,44.97
2022-08-22T10:04:54.479Z,44.27
2022-08-22T10:08:07.756Z,41.93
2022-08-22T10:10:54.691Z,44.30
2022-08-22T10:13:47.255Z,44.18
2022-08-22T10:16:53.943Z,40.14
2022-08-22T10:19:47.806Z,40.07
2022-08-22T10:22:30.232Z,40.17
2022-08-22T10:25:42.222Z,39.52
2022-08-22T10:28:28.630Z,40.13
2022-08-22T10:30:55.493Z,41.99
2022-08-22T10:33:33.390Z,38.32
2022-08-22T10:36:13.116Z,38.72
2022-08-22T10:38:54.948Z,40.05
2022-08-22T10:41:33.983Z,40.12
2022-08-22T10:44:30.374Z,40.08
2022-08-22T10:47:18.087Z,42.34
2022-08-22T10:49:56.989Z,41.07
2022-08-22T10:52:35.147Z,40.68
2022-08-22T10:55:25.097Z,41.98
2022-08-22T10:58:15.530Z,43.82
2022-08-22T11:01:37.084Z,41.90
2022-08-22T11:04:28.518Z,39.76
2022-08-22T11:07:42.422Z,40.55
2022-08-22T11:10:40.991Z,40.74
2022-08-22T11:13:30.732Z,40.34
2022-08-22T11:17:32.274Z,37.47
2022-08-22T11:20:21.462Z,37.84
2022-08-22T11:23:15.886Z,36.58
2022-08-22T11:26:33.666Z,39.78
2022-08-22T11:30:02.225Z,37.41
2022-08-22T11:33:09.583Z,36.20
2022-08-22T11:35:54.499Z,36.56
2022-08-22T11:38:55.932Z,35.73
2022-08-22T11:41:52.227Z,37.19
2022-08-22T11:44:34.475Z,36.82
2022-08-22T11:47:15.986Z,37.80
2022-08-22T11:50:35.185Z,37.93
2022-08-22T11:53:40.753Z,39.07
2022-08-22T11:56:37.013Z,36.84
2022-08-22T11:59:32.801Z,35.85
2022-08-22T12:02:52.056Z,37.63
2022-08-22T12:05:47.183Z,39.12
2022-08-22T12:08:52.379Z,37.97
2022-08-22T12:11:46.775Z,37.30
2022-08-22T12:14:42.895Z,35.82
2022-08-22T12:17:55.065Z,37.35
2022-08-22T12:20:33.026Z,34.53
2022-08-22T12:23:48.818Z,34.06
2022-08-22T12:26:54.848Z,33.29
2022-08-22T12:29:57.678Z,35.92
2022-08-22T12:33:22.944Z,33.83
2022-08-22T12:36:18.385Z,33.44
2022-08-22T12:39:07.685Z,33.90
2022-08-22T12:41:46.783Z,34.23
2022-08-22T12:44:29.115Z,33.41
2022-08-22T12:47:34.308Z,37.22
2022-08-22T12:50:29.118Z,34.80
2022-08-22T12:53:23.364Z,35.32
2022-08-22T12:56:03.510Z,34.83
2022-08-22T12:59:01.042Z,33.91
2022-08-22T13:01:43.437Z,31.88
2022-08-22T13:04:34.762Z,32.12
2022-08-22T13:07:06.055Z,34.67
2022-08-22T13:09:39.488Z,35.91
2022-08-22T13:12:47.548Z,31.78
2022-08-22T13:15:42.689Z,31.97
2022-08-22T13:18:30.026Z,33.58
2022-08-22T13:21:04.209Z,31.17
2022-08-22T13:23:47.054Z,30.30
2022-08-22T13:26:32.048Z,30.02
2022-08-22T13:29:26.069Z,29.72
2022-08-22T13:32:00.611Z,30.03
2022-08-22T13:34:43.629Z,22.58
2022-08-22T13:37:36.820Z,21.76
2022-08-22T13:40:15.803Z,21.01
2022-08-22T13:42:54.130Z,21.90
2022-08-22T13:45:31.304Z,22.09
2022-08-22T13:48:14.392Z,24.52
2022-08-22T13:51:37.893Z,19.58
2022-08-22T13:54:12.146Z,22.15
2022-08-22T13:56:53.622Z,21.37
2022-08-22T14:00:05.850Z,23.72
2022-08-22T14:02:58.281Z,23.02
2022-08-22T14:05:54.979Z,24.96
2022-08-22T14:08:34.575Z,23.35
2022-08-22T14:11:20.450Z,20.10
2022-08-22T14:14:04.045Z,21.00
2022-08-22T14:17:00.885Z,19.27
2022-08-22T14:19:53.076Z,19.46
2022-08-22T14:22:32.267Z,20.65
2022-08-22T14:25:09.443Z,22.58
2022-08-22T14:27:52.537Z,24.33
2022-08-22T14:30:28.539Z,24.44
2022-08-22T14:33:24.724Z,25.19
2022-08-22T14:35:58.443Z,25.95
2022-08-22T14:38:31.731Z,30.16
2022-08-22T14:41:21.159Z,25.95
2022-08-22T14:44:01.961Z,28.43
2022-08-22T14:46:49.448Z,29.04
2022-08-22T14:49:19.376Z,31.67
2022-08-22T14:52:00.503Z,29.16
2022-08-22T14:54:31.166Z,30.46
2022-08-22T14:57:03.849Z,30.02
2022-08-22T14:59:50.110Z,31.71
2022-08-22T15:02:30.655Z,30.75
2022-08-22T15:05:14.929Z,31.63
2022-08-22T15:07:43.058Z,30.12
2022-08-22T15:10:31.783Z,30.47
2022-08-22T15:13:10.232Z,31.76
2022-08-22T15:15:53.337Z,30.50
2022-08-22T15:18:27.758Z,31.57
2022-08-22T15:21:21.080Z,30.02
2022-08-22T15:23:59.479Z,33.93
2022-08-22T15:26:39.764Z,29.87
2022-08-22T15:29:18.442Z,29.59
2022-08-22T15:31:57.963Z,33.57
2022-08-22T15:34:41.940Z,34.75
2022-08-22T15:37:18.250Z,33.35
2022-08-22T15:40:14.344Z,34.30
2022-08-22T15:42:51.483Z,32.95
2022-08-22T15:45:33.905Z,32.34
2022-08-22T15:48:08.012Z,32.75
2022-08-22T15:50:59.708Z,33.43
2022-08-22T15:54:01.722Z,32.45
2022-08-22T15:56:35.389Z,33.90
2022-08-22T15:59:53.746Z,35.07
2022-08-22T16:02:35.484Z,35.71
2022-08-22T16:05:11.731Z,32.81
2022-08-22T16:07:57.532Z,33.83
2022-08-22T16:10:24.275Z,34.38
2022-08-22T16:13:31.125Z,35.90
2022-08-22T16:16:11.971Z,33.12
2022-08-22T16:18:42.770Z,34.82
2022-08-22T16:21:22.930Z,33.31
2022-08-22T16:23:58.705Z,34.25
2022-08-22T16:26:31.716Z,34.28
2022-08-22T16:29:14.698Z,30.80
2022-08-22T16:31:44.796Z,32.33
2022-08-22T16:34:20.534Z,34.22
2022-08-22T16:37:09.194Z,33.27
2022-08-22T16:40:18.531Z,33.47
2022-08-22T16:43:12.023Z,34.30
2022-08-22T16:45:45.761Z,36.27
2022-08-22T16:48:33.384Z,34.46
2022-08-22T16:51:18.735Z,34.62
2022-08-22T16:54:13.486Z,31.82
2022-08-22T16:56:51.416Z,30.19
2022-08-22T16:59:40.797Z,29.44
2022-08-22T17:02:34.052Z,31.65
2022-08-22T17:05:35.445Z,29.92
2022-08-22T17:08:26.977Z,33.11
2022-08-22T17:11:22.477Z,28.14
2022-08-22T17:14:34.122Z,31.81
2022-08-22T17:17:10.052Z,31.16
2022-08-22T17:19:45.923Z,32.43
2022-08-22T17:22:32.003Z,32.69
2022-08-22T17:25:14.125Z,34.48
2022-08-22T17:27:47.284Z,36.63
2022-08-22T17:30:46.166Z,38.50
2022-08-22T17:33:30.149Z,36.96
2022-08-22T17:36:06.458Z,35.94
2022-08-22T17:39:29.053Z,36.14
2022-08-22T17:42:38.266Z,37.32
2022-08-22T17:45:42.290Z,36.67
2022-08-22T17:48:50.057Z,36.38
2022-08-22T17:51:43.249Z,38.37
2022-08-22T17:54:29.712Z,40.08
2022-08-22T17:57:19.828Z,41.13
2022-08-22T18:00:16.432Z,40.05
2022-08-22T18:03:06.882Z,41.36
2022-08-22T18:05:51.159Z,43.00
2022-08-22T18:08:38.092Z,39.85
2022-08-22T18:11:28.831Z,42.26
2022-08-22T18:14:19.291Z,41.51
2022-08-22T18:16:52.807Z,41.29
2022-08-22T18:19:57.768Z,42.18
2022-08-22T18:22:48.694Z,41.63
2022-08-22T18:25:18.709Z,42.03
2022-08-22T18:28:00.835Z,42.25
2022-08-22T18:30:53.273Z,41.23
2022-08-22T18:33:40.900Z,42.03
2022-08-22T18:36:14.767Z,41.45
2022-08-22T18:39:24.994Z,42.73
2022-08-22T18:42:31.221Z,41.72
2022-08-22T18:44:58.189Z,42.61
2022-08-22T18:47:32.842Z,41.74
2022-08-22T18:50:23.819Z,41.94
2022-08-22T18:52:53.467Z,42.92
2022-08-22T18:55:50.196Z,41.92
2022-08-22T18:59:05.808Z,42.84
2022-08-22T19:02:09.750Z,43.00
2022-08-22T19:05:15.005Z,44.47
2022-08-22T19:08:00.366Z,45.47
2022-08-22T19:11:03.420Z,44.54
2022-08-22T19:14:08.917Z,45.53
2022-08-22T19:17:03.452Z,45.76
2022-08-22T19:20:21.137Z,45.57
2022-08-22T19:22:51.041Z,45.91
2022-08-22T19:25:18.342Z,47.24
2022-08-22T19:28:09.712Z,46.33
2022-08-22T19:30:48.593Z,47.74
2022-08-22T19:33:41.936Z,47.11
2022-08-22T19:36:30.791Z,47.78
2022-08-22T19:39:04.426Z,48.59
2022-08-22T19:41:56.852Z,49.22
2022-08-22T19:44:23.733Z,48.69
2022-08-22T19:47:18.492Z,49.25
2022-08-22T19:50:00.341Z,49.30
2022-08-22T19:52:32.851Z,50.17
2022-08-22T19:55:21.389Z,50.61
2022-08-22T19:58:31.030Z,51.09
2022-08-22T20:01:49.056Z,51.17
2022-08-22T20:04:48.811Z,51.72
2022-08-22T20:07:29.814Z,52.29
2022-08-22T20:10:20.188Z,51.86
2022-08-22T20:12:59.768Z,52.41
2022-08-22T20:15:30.466Z,52.81
2022-08-22T20:18:47.432Z,53.07
2022-08-22T20:21:00.331Z,53.17
2022-08-22T20:23:31.985Z,54.38
2022-08-22T20:25:59.670Z,54.25
2022-08-22T20:28:45.829Z,54.80
2022-08-22T20:31:23.204Z,54.59
2022-08-22T20:34:01.952Z,54.67
2022-08-22T20:36:32.273Z,54.62
2022-08-22T20:39:13.217Z,54.94
2022-08-22T20:41:49.820Z,55.62
2022-08-22T20:44:37.712Z,54.98
2022-08-22T20:47:21.322Z,55.94
2022-08-22T20:50:10.246Z,54.86
2022-08-22T20:52:51.937Z,56.55
2022-08-22T20:55:27.240Z,57.41
2022-08-22T20:58:21.074Z,57.17
2022-08-22T21:00:56.827Z,58.55
2022-08-22T21:03:48.877Z,57.57
2022-08-22T21:06:34.883Z,58.81
2022-08-22T21:09:38.645Z,57.51
2022-08-22T21:12:09.283Z,58.58
2022-08-22T21:14:44.350Z,58.57
2022-08-22T21:17:27.261Z,58.18
2022-08-22T21:19:57.789Z,58.17
2022-08-22T21:22:32.751Z,57.22
2022-08-22T21:25:01.320Z,57.58
2022-08-22T21:27:34.174Z,56.89
2022-08-22T21:30:09.400Z,58.06
2022-08-22T21:32:47.970Z,57.60
2022-08-22T21:35:32.979Z,57.88
2022-08-22T21:38:01.763Z,58.09
2022-08-22T21:40:35.443Z,57.92
2022-08-22T21:43:08.915Z,57.78
2022-08-22T21:45:38.621Z,57.71
2022-08-22T21:48:45.937Z,58.64
2022-08-22T21:51:36.315Z,58.63
2022-08-22T21:54:24.872Z,58.09
2022-08-22T21:57:19.128Z,58.52
2022-08-22T21:59:59.737Z,58.92
2022-08-22T22:02:37.885Z,59.05
2022-08-22T22:05:19.405Z,58.80
2022-08-22T22:07:47.641Z,58.10
2022-08-22T22:10:18.806Z,58.48
2022-08-22T22:12:56.561Z,58.37
2022-08-22T22:15:28.832Z,58.28
2022-08-22T22:17:55.944Z,58.53
2022-08-22T22:20:27.574Z,58.62
2022-08-22T22:22:56.062Z,57.57
2022-08-22T22:25:41.388Z,58.21
2022-08-22T22:28:15.780Z,58.76
2022-08-22T22:30:44.223Z,58.49
2022-08-22T22:33:12.257Z,59.07
2022-08-22T22:35:40.897Z,59.05
2022-08-22T22:38:09.311Z,59.89
2022-08-22T22:40:36.422Z,59.37
2022-08-22T22:43:04.921Z,59.40
2022-08-22T22:45:31.531Z,60.25
2022-08-22T22:47:58.390Z,59.44
2022-08-22T22:50:25.590Z,59.92
2022-08-22T22:52:54.098Z,60.47
2022-08-22T22:55:24.236Z,60.45
2022-08-22T22:57:59.072Z,60.10
2022-08-22T23:00:33.122Z,60.57
2022-08-22T23:03:04.704Z,60.04
2022-08-22T23:05:33.406Z,60.18
2022-08-22T23:08:01.901Z,60.02
2022-08-22T23:10:31.406Z,60.80
2022-08-22T23:12:59.455Z,61.22
2022-08-22T23:15:27.221Z,60.41
2022-08-22T23:17:54.243Z,61.24
2022-08-22T23:20:20.941Z,61.90
2022-08-22T23:22:48.256Z,62.49
2022-08-22T23:25:15.244Z,62.33
2022-08-22T23:27:42.458Z,61.63
2022-08-22T23:30:10.873Z,63.08
2022-08-22T23:32:37.929Z,62.15
2022-08-22T23:35:06.282Z,62.25
2022-08-22T23:37:33.544Z,64.28
2022-08-22T23:40:01.076Z,63.96
2022-08-22T23:42:29.337Z,65.01
2022-08-22T23:44:56.314Z,64.78
2022-08-22T23:47:22.972Z,63.76
2022-08-22T23:49:50.120Z,64.51
2022-08-22T23:52:17.887Z,65.32
2022-08-22T23:54:44.531Z,65.30
2022-08-22T23:57:11.946Z,64.50
2022-08-22T23:59:46.501Z,65.09
